Time;durP1;ratioP1;P1;durP2;ratioP2;P2;SDS_P1;SDS_P2;PMS_P1;PMS_P2;Temp;Humidity;BMP_temperature;BMP_pressure;BME280_temperature;BME280_humidity;BME280_pressure;Samples;Min_cycle;Max_cycle;Signal;HPM_P1;HPM_P2
2024/04/16 00:00:22;;;;;;;3.33;1.50;;;;;;;13.76;72.03;91571.09;2027827;70;20545;-71
2024/04/16 00:02:48;;;;;;;6.97;1.90;;;;;;;13.79;72.12;91586.75;2025140;70;20152;-71
2024/04/16 00:05:14;;;;;;;4.07;1.70;;;;;;;13.65;72.42;91563.66;2028455;70;20152;-70
2024/04/16 00:07:39;;;;;;;4.80;1.50;;;;;;;13.81;72.43;91575.50;2028447;70;20606;-74
2024/04/16 00:10:05;;;;;;;4.63;1.52;;;;;;;13.73;72.32;91564.66;2028203;70;20137;-75
2024/04/16 00:12:31;;;;;;;2.67;1.40;;;;;;;13.69;72.53;91561.69;2028341;70;20545;-74
2024/04/16 00:15:15;;;;;;;1.95;1.00;;;;;;;13.69;72.32;91569.47;2028254;70;20159;-74
2024/04/16 00:17:43;;;;;;;3.80;1.30;;;;;;;13.65;72.17;91569.31;2025153;70;20180;-73
2024/04/16 00:20:10;;;;;;;7.15;1.58;;;;;;;13.64;72.20;91562.22;2027931;70;20153;-69
2024/04/16 00:22:36;;;;;;;2.75;1.20;;;;;;;13.52;72.65;91545.63;2028373;70;20152;-71
2024/04/16 00:25:02;;;;;;;6.47;1.40;;;;;;;13.55;72.54;91552.03;2027968;70;20244;-71
2024/04/16 00:27:29;;;;;;;3.35;1.42;;;;;;;13.57;71.84;91546.47;2028138;70;20160;-69
2024/04/16 00:29:57;;;;;;;4.70;1.38;;;;;;;13.48;72.04;91539.84;2027570;70;20164;-71
2024/04/16 00:32:23;;;;;;;4.97;1.40;;;;;;;13.59;70.48;91533.09;2028459;70;20509;-71
2024/04/16 00:34:49;;;;;;;2.85;1.90;;;;;;;13.39;72.73;91536.03;2028061;70;20241;-70
2024/04/16 00:37:15;;;;;;;4.50;1.77;;;;;;;13.30;73.38;91533.59;2028295;70;20164;-70
2024/04/16 00:39:41;;;;;;;1.55;1.25;;;;;;;13.37;72.12;91530.28;2028367;70;20208;-71
2024/04/16 00:42:07;;;;;;;3.80;1.10;;;;;;;13.32;72.06;91520.25;2028243;70;20249;-70
2024/04/16 00:44:32;;;;;;;5.18;1.30;;;;;;;13.31;71.01;91509.59;2028452;70;20155;-74
2024/04/16 00:46:59;;;;;;;6.25;1.50;;;;;;;13.13;70.88;91493.47;2027827;70;20211;-71
2024/04/16 00:49:27;;;;;;;4.60;1.65;;;;;;;13.21;70.48;91495.84;2028367;70;20184;-70
2024/04/16 00:51:54;;;;;;;4.72;1.50;;;;;;;13.09;71.02;91506.75;2028455;70;20482;-70
2024/04/16 00:54:23;;;;;;;2.60;1.30;;;;;;;13.07;70.83;91489.75;2027749;70;20153;-71
2024/04/16 00:56:55;;;;;;;4.55;1.58;;;;;;;13.11;71.48;91487.06;2028685;70;20161;-70
2024/04/16 00:59:28;;;;;;;2.95;1.27;;;;;;;12.88;70.99;91475.03;2027904;70;20203;-71
2024/04/16 01:01:58;;;;;;;5.78;1.20;;;;;;;12.96;69.65;91480.94;2027807;70;20273;-71
2024/04/16 01:04:28;;;;;;;2.30;1.10;;;;;;;13.00;69.85;91482.44;2028665;70;20152;-70
2024/04/16 01:06:53;;;;;;;2.97;1.48;;;;;;;12.86;70.11;91477.78;2028287;70;20183;-71
2024/04/16 01:09:19;;;;;;;4.18;1.25;;;;;;;12.80;70.40;91474.03;2028237;70;20239;-70
2024/04/16 01:11:48;;;;;;;2.75;1.17;;;;;;;12.78;71.02;91469.03;2028309;70;20566;-69
2024/04/16 01:14:14;;;;;;;3.83;1.48;;;;;;;12.64;72.06;91469.28;2028303;70;20179;-70
2024/04/16 01:16:40;;;;;;;2.30;1.30;;;;;;;12.75;71.60;91480.94;2028248;70;20499;-69
2024/04/16 01:19:07;;;;;;;4.97;1.48;;;;;;;12.58;71.48;91468.38;2028312;70;20184;-70
2024/04/16 01:21:32;;;;;;;3.78;1.40;;;;;;;12.66;71.76;91472.19;2027710;70;20559;-71
2024/04/16 01:23:58;;;;;;;4.32;1.50;;;;;;;12.68;71.49;91472.25;2028192;70;20243;-72
2024/04/16 01:26:24;;;;;;;2.58;1.20;;;;;;;12.69;71.39;91456.03;2028394;70;20251;-70
2024/04/16 01:28:49;;;;;;;2.10;1.25;;;;;;;12.86;70.54;91465.75;2028321;70;20152;-70
2024/04/16 01:31:15;;;;;;;7.05;1.35;;;;;;;12.70;70.81;91463.84;2028105;70;20165;-70
2024/04/16 01:33:41;;;;;;;3.45;1.30;;;;;;;12.69;70.93;91468.06;2028157;70;20173;-70
2024/04/16 01:36:08;;;;;;;3.80;1.38;;;;;;;12.78;70.54;91471.84;2025057;70;20141;-71
2024/04/16 01:38:34;;;;;;;3.47;1.45;;;;;;;12.67;71.10;91473.63;2028393;70;20145;-73
2024/04/16 01:41:02;;;;;;;2.78;1.30;;;;;;;12.70;70.78;91482.91;2028178;70;20666;-71
2024/04/16 01:43:28;;;;;;;5.22;1.27;;;;;;;12.53;70.77;91490.09;2028292;70;20236;-71
2024/04/16 01:45:53;;;;;;;4.05;1.20;;;;;;;12.58;71.50;91486.03;2028231;70;20329;-72
2024/04/16 01:48:19;;;;;;;3.70;1.23;;;;;;;12.67;71.66;91487.03;2028242;70;20235;-71
2024/04/16 01:50:45;;;;;;;6.25;1.50;;;;;;;12.54;72.06;91482.34;2028322;70;20216;-70
2024/04/16 01:53:11;;;;;;;7.13;1.60;;;;;;;12.66;71.53;91475.00;2028363;70;20230;-71
2024/04/16 01:55:38;;;;;;;3.17;1.60;;;;;;;12.68;71.83;91475.06;2027927;70;20625;-71
2024/04/16 01:58:04;;;;;;;5.97;1.48;;;;;;;12.65;71.35;91465.09;2028326;70;20655;-72
2024/04/16 02:00:29;;;;;;;3.22;1.27;;;;;;;12.53;72.38;91478.81;2027874;70;20155;-73
2024/04/16 02:02:57;;;;;;;2.70;1.60;;;;;;;12.70;70.88;91463.13;2028380;70;20188;-71
2024/04/16 02:05:22;;;;;;;5.15;1.85;;;;;;;12.75;71.07;91455.53;2028154;70;20183;-71
2024/04/16 02:07:48;;;;;;;4.57;1.98;;;;;;;12.66;72.21;91460.91;2027603;70;20163;-74
2024/04/16 02:10:15;;;;;;;3.53;1.80;;;;;;;12.71;70.82;91462.47;2028248;70;20225;-73
2024/04/16 02:12:41;;;;;;;5.43;1.30;;;;;;;12.65;70.88;91453.81;2028015;70;20165;-74
2024/04/16 02:15:07;;;;;;;2.33;1.42;;;;;;;12.65;71.95;91453.09;2028344;70;20161;-69
2024/04/16 02:17:32;;;;;;;5.72;1.60;;;;;;;12.65;71.78;91445.34;2028369;70;20191;-71
2024/04/16 02:19:58;;;;;;;1.88;1.33;;;;;;;12.64;71.35;91443.16;2027742;70;20153;-70
2024/04/16 02:22:24;;;;;;;9.73;1.50;;;;;;;12.60;71.46;91443.03;2028207;70;20248;-71
2024/04/16 02:24:49;;;;;;;2.08;1.02;;;;;;;12.52;70.57;91449.13;2028208;70;20151;-72
2024/04/16 02:27:15;;;;;;;2.47;1.08;;;;;;;12.59;70.46;91447.94;2027546;70;20164;-73
2024/04/16 02:29:40;;;;;;;3.03;1.60;;;;;;;12.14;72.36;91452.09;2028084;70;20267;-70
2024/04/16 02:32:06;;;;;;;5.05;1.75;;;;;;;12.41;72.74;91458.63;2028254;70;20235;-70
2024/04/16 02:34:32;;;;;;;4.63;1.67;;;;;;;12.51;72.22;91456.16;2028005;70;20148;-70
2024/04/16 02:36:57;;;;;;;3.92;1.80;;;;;;;12.58;72.01;91451.44;2028190;70;20275;-71
2024/04/16 02:39:24;;;;;;;6.40;2.08;;;;;;;12.68;72.13;91455.31;2028149;70;20538;-70
2024/04/16 02:41:49;;;;;;;3.65;1.90;;;;;;;12.65;71.45;91453.81;2027533;70;20150;-70
2024/04/16 02:44:15;;;;;;;2.30;1.60;;;;;;;12.51;72.63;91459.00;2027985;70;20244;-69
2024/04/16 02:46:41;;;;;;;4.50;1.98;;;;;;;12.60;72.33;91451.50;2028259;70;20622;-71
2024/04/16 02:49:07;;;;;;;4.13;1.58;;;;;;;12.65;71.67;91450.28;2027971;70;20575;-69
2024/04/16 02:51:32;;;;;;;4.50;1.63;;;;;;;12.62;71.81;91451.56;2028097;70;20152;-70
2024/04/16 02:53:58;;;;;;;3.15;1.50;;;;;;;12.66;71.68;91460.19;2028102;70;20673;-70
2024/04/16 02:56:23;;;;;;;3.17;1.40;;;;;;;12.65;71.96;91456.63;2027914;70;20622;-69
2024/04/16 02:58:52;;;;;;;4.70;1.63;;;;;;;12.58;72.93;91451.44;2024392;70;20165;-70
2024/04/16 03:01:18;;;;;;;1.88;1.00;;;;;;;12.54;71.62;91442.81;2027839;70;20168;-70
2024/04/16 03:03:44;;;;;;;3.05;1.00;;;;;;;12.57;70.87;91447.16;2024455;70;20201;-70
2024/04/16 03:06:09;;;;;;;2.30;1.30;;;;;;;12.50;70.04;91434.94;2024608;70;20137;-69
2024/04/16 03:08:35;;;;;;;2.67;1.50;;;;;;;12.32;71.89;91456.91;2028254;70;20612;-69
2024/04/16 03:11:02;;;;;;;5.88;1.60;;;;;;;12.41;71.99;91453.69;2024620;70;20630;-69
2024/04/16 03:13:28;;;;;;;3.67;1.50;;;;;;;12.55;72.58;91453.47;2027713;70;20483;-68
2024/04/16 03:15:54;;;;;;;2.95;1.50;;;;;;;12.53;72.20;91461.88;2027903;70;20243;-69
2024/04/16 03:18:20;;;;;;;3.65;1.90;;;;;;;12.30;72.78;91443.44;2028082;70;20169;-69
2024/04/16 03:20:46;;;;;;;4.88;1.52;;;;;;;12.48;72.05;91453.94;2024761;70;20221;-70
2024/04/16 03:23:12;;;;;;;3.42;1.58;;;;;;;12.49;72.14;91458.91;2028203;70;20145;-69
2024/04/16 03:25:43;;;;;;;3.85;1.52;;;;;;;12.46;71.73;91457.38;2028237;70;20141;-71
2024/04/16 03:28:09;;;;;;;2.72;1.52;;;;;;;12.46;70.64;91444.00;2028272;70;20156;-72
2024/04/16 03:30:35;;;;;;;3.22;1.70;;;;;;;12.50;70.74;91451.88;2027850;70;20517;-72
2024/04/16 03:33:02;;;;;;;18.42;10.75;;;;;;;12.50;71.38;91456.81;2028085;70;20621;-71
2024/04/16 03:35:27;;;;;;;12.85;5.97;;;;;;;12.61;69.88;91444.50;2028197;70;20574;-71
2024/04/16 03:37:53;;;;;;;5.40;1.95;;;;;;;12.37;71.12;91442.28;2028141;70;20239;-71
2024/04/16 03:40:18;;;;;;;5.88;2.10;;;;;;;12.48;71.42;91443.34;2028181;70;20689;-72
2024/04/16 03:42:44;;;;;;;3.35;2.08;;;;;;;12.48;71.73;91437.00;2028195;70;20145;-72
2024/04/16 03:45:10;;;;;;;6.57;3.00;;;;;;;12.54;71.75;91437.19;2028195;70;20177;-71
2024/04/16 03:47:35;;;;;;;5.72;3.78;;;;;;;12.54;72.00;91437.19;2028280;70;20181;-71
2024/04/16 03:50:01;;;;;;;6.40;4.07;;;;;;;12.49;71.82;91438.44;2028073;70;20188;-72
2024/04/16 03:52:26;;;;;;;10.85;3.80;;;;;;;12.54;71.39;91437.91;2028174;70;20518;-74
2024/04/16 03:54:52;;;;;;;3.05;1.92;;;;;;;12.36;71.25;91431.66;2028267;70;20136;-71
2024/04/16 03:57:18;;;;;;;5.00;2.00;;;;;;;12.39;71.01;91433.88;2028214;70;20243;-72
2024/04/16 04:02:34;;;;;;;4.60;1.40;;;;;;;12.45;69.50;91433.38;2028199;70;20180;-71
2024/04/16 04:05:00;;;;;;;2.15;1.20;;;;;;;12.42;68.14;91437.50;2024579;70;20187;-71
2024/04/16 04:07:26;;;;;;;11.52;5.15;;;;;;;12.19;69.25;91431.09;2027905;70;20152;-71
2024/04/16 04:09:53;;;;;;;4.75;2.80;;;;;;;12.30;69.89;91432.16;2027995;70;20144;-71
2024/04/16 04:12:18;;;;;;;5.88;3.67;;;;;;;12.29;70.13;91435.66;2022221;70;20240;-72
2024/04/16 04:14:44;;;;;;;5.57;2.60;;;;;;;12.31;69.69;91430.06;2024982;70;20202;-72
2024/04/16 04:17:10;;;;;;;5.20;2.10;;;;;;;12.29;69.29;91410.25;2028385;70;20121;-71
2024/04/16 04:19:35;;;;;;;4.38;2.00;;;;;;;12.26;70.10;91423.56;2028586;70;20516;-72
2024/04/16 04:22:01;;;;;;;4.35;2.30;;;;;;;12.27;69.89;91439.09;2028465;70;20192;-72
2024/04/16 04:24:27;;;;;;;6.15;2.75;;;;;;;12.05;70.02;91432.69;2028608;70;20145;-71
2024/04/16 04:26:53;;;;;;;6.20;2.97;;;;;;;11.52;72.29;91419.50;2028626;70;20172;-74
2024/04/16 04:29:19;;;;;;;9.32;2.88;;;;;;;11.73;72.02;91430.16;2028524;70;20213;-72
2024/04/16 04:31:44;;;;;;;7.35;2.50;;;;;;;11.91;70.97;91444.19;2028456;70;20151;-70
2024/04/16 04:34:10;;;;;;;4.53;2.42;;;;;;;11.68;70.93;91434.19;2028485;70;20183;-70
2024/04/16 04:36:35;;;;;;;8.40;1.92;;;;;;;10.98;67.92;91449.84;2022302;70;20236;-71
2024/04/16 04:39:01;;;;;;;5.22;1.50;;;;;;;10.67;66.48;91462.72;2028355;70;20167;-71
2024/04/16 04:41:27;;;;;;;8.98;1.58;;;;;;;10.44;65.93;91463.88;2028575;70;20161;-73
2024/04/16 04:43:54;;;;;;;5.07;1.50;;;;;;;10.98;64.75;91472.38;2028530;70;20474;-73
2024/04/16 04:46:20;;;;;;;4.80;1.60;;;;;;;11.08;64.09;91476.31;2028298;70;20168;-73
2024/04/16 04:48:45;;;;;;;7.85;1.35;;;;;;;11.43;63.49;91481.19;2028440;70;20179;-73
2024/04/16 04:51:12;;;;;;;3.85;1.60;;;;;;;11.53;62.40;91485.78;2028513;70;20196;-73
2024/04/16 04:53:38;;;;;;;4.75;1.50;;;;;;;11.37;63.15;91489.44;2028259;70;20252;-75
2024/04/16 04:56:04;;;;;;;4.35;1.15;;;;;;;11.11;61.71;91499.66;2028607;70;20495;-71
2024/04/16 04:58:30;;;;;;;4.07;1.20;;;;;;;11.40;61.01;91482.47;2028441;70;20149;-72
2024/04/16 05:00:56;;;;;;;2.50;1.10;;;;;;;11.09;60.50;91488.31;2028296;70;20261;-70
2024/04/16 05:03:21;;;;;;;6.85;1.50;;;;;;;11.24;60.65;91493.13;2028390;70;20252;-72
2024/04/16 05:05:47;;;;;;;8.52;3.47;;;;;;;10.95;59.73;91505.38;2028547;70;20165;-73
2024/04/16 05:08:13;;;;;;;45.45;15.63;;;;;;;10.65;60.21;91514.03;2028179;70;20173;-71
2024/04/16 05:10:39;;;;;;;19.15;6.65;;;;;;;10.90;60.35;91509.38;2028227;70;20251;-70
2024/04/16 05:13:05;;;;;;;4.68;1.75;;;;;;;10.98;60.08;91518.16;2028313;70;20175;-71
2024/04/16 05:15:31;;;;;;;1.60;0.90;;;;;;;10.36;60.03;91509.31;2028058;70;20180;-74
2024/04/16 05:17:56;;;;;;;3.88;1.30;;;;;;;11.04;59.39;91546.59;2028347;70;20180;-71
2024/04/16 05:20:22;;;;;;;4.63;1.00;;;;;;;11.33;58.43;91554.06;2024876;70;20133;-69
2024/04/16 05:22:49;;;;;;;2.17;1.20;;;;;;;11.38;57.73;91580.31;2028128;70;20160;-70
2024/04/16 05:25:15;;;;;;;1.35;0.70;;;;;;;10.50;56.09;91595.69;2028075;70;20158;-71
2024/04/16 05:27:41;;;;;;;2.28;0.60;;;;;;;10.34;55.87;91615.38;2028367;70;20402;-72
2024/04/16 05:30:08;;;;;;;2.20;0.60;;;;;;;10.40;55.70;91627.63;2028200;70;20180;-70
2024/04/16 05:32:34;;;;;;;1.27;0.40;;;;;;;9.76;54.82;91654.22;2028127;70;20309;-70
2024/04/16 05:35:00;;;;;;;3.75;0.70;;;;;;;8.86;57.79;91649.91;2028309;70;20319;-73
2024/04/16 05:37:25;;;;;;;1.70;0.40;;;;;;;9.09;61.84;91667.84;2028488;70;20141;-71
2024/04/16 05:39:51;;;;;;;0.60;0.30;;;;;;;9.58;61.95;91703.94;2028378;70;20230;-70
2024/04/16 05:42:17;;;;;;;1.10;0.30;;;;;;;9.84;59.61;91705.19;2028233;70;20169;-71
2024/04/16 05:44:42;;;;;;;0.45;0.22;;;;;;;10.08;59.78;91730.19;2024815;70;20570;-71
2024/04/16 05:47:08;;;;;;;0.25;0.20;;;;;;;9.58;56.94;91734.84;2028763;70;20148;-72
2024/04/16 05:49:34;;;;;;;1.55;0.40;;;;;;;9.10;58.41;91714.94;2028627;70;20217;-71
2024/04/16 05:52:01;;;;;;;2.72;0.20;;;;;;;9.06;59.45;91728.06;2028522;70;20666;-72
2024/04/16 05:54:28;;;;;;;0.80;0.28;;;;;;;9.51;60.04;91745.06;2028548;70;20231;-73
2024/04/16 05:56:53;;;;;;;3.80;0.20;;;;;;;9.89;62.42;91751.09;2024658;70;20244;-73
2024/04/16 05:59:19;;;;;;;0.65;0.30;;;;;;;9.23;60.84;91764.03;2028324;70;20157;-71
2024/04/16 06:01:47;;;;;;;1.65;0.40;;;;;;;9.72;64.36;91769.25;2028624;70;20160;-70
2024/04/16 06:04:13;;;;;;;0.50;0.50;;;;;;;9.96;62.41;91764.09;2028506;70;20137;-70
2024/04/16 06:06:38;;;;;;;1.13;0.32;;;;;;;9.70;62.46;91752.28;2028618;70;20184;-71
2024/04/16 06:09:04;;;;;;;0.70;0.30;;;;;;;9.72;61.71;91717.94;2028852;70;20157;-70
2024/04/16 06:11:31;;;;;;;1.17;0.35;;;;;;;10.12;62.93;91747.97;2028321;70;20168;-71
2024/04/16 06:13:58;;;;;;;2.50;0.30;;;;;;;10.26;64.32;91756.38;2028263;70;20168;-71
2024/04/16 06:16:23;;;;;;;1.10;0.30;;;;;;;10.28;65.64;91776.16;2028486;70;20163;-70
2024/04/16 06:18:51;;;;;;;0.63;0.30;;;;;;;10.33;66.05;91768.66;2028765;70;20141;-72
2024/04/16 06:21:16;;;;;;;1.10;0.40;;;;;;;10.37;65.62;91774.47;2028639;70;20155;-73
2024/04/16 06:23:42;;;;;;;1.52;0.30;;;;;;;10.24;66.13;91766.78;2028676;70;20148;-71
2024/04/16 06:26:09;;;;;;;1.55;0.20;;;;;;;10.49;65.64;91774.28;2024897;70;20642;-71
2024/04/16 06:28:35;;;;;;;0.40;0.32;;;;;;;10.65;64.45;91777.84;2028164;70;20301;-72
2024/04/16 06:31:00;;;;;;;0.30;0.30;;;;;;;10.72;63.04;91759.91;2024740;70;20160;-71
2024/04/16 06:33:28;;;;;;;0.43;0.30;;;;;;;10.74;61.81;91748.00;2028414;70;20168;-71
2024/04/16 06:35:54;;;;;;;1.67;0.30;;;;;;;11.03;63.20;91755.59;2028229;70;20136;-70
2024/04/16 06:38:24;;;;;;;1.23;0.50;;;;;;;11.04;63.63;91745.78;2028431;70;20240;-73
2024/04/16 06:40:51;;;;;;;2.40;0.20;;;;;;;10.91;65.40;91748.06;2028302;70;20225;-71
2024/04/16 06:43:16;;;;;;;1.30;0.10;;;;;;;10.96;65.13;91748.25;2028464;70;20490;-71
2024/04/16 06:45:43;;;;;;;2.45;0.20;;;;;;;10.98;64.15;91754.69;2028002;70;20243;-70
2024/04/16 06:48:08;;;;;;;1.10;0.20;;;;;;;11.08;63.91;91755.13;2028399;70;20175;-69
2024/04/16 06:50:35;;;;;;;0.45;0.13;;;;;;;11.27;63.77;91758.75;2028645;70;20156;-74
2024/04/16 06:53:01;;;;;;;0.17;0.17;;;;;;;11.15;63.35;91742.78;2028304;70;20630;-71
2024/04/16 06:55:26;;;;;;;0.90;0.20;;;;;;;11.25;63.00;91736.84;2024982;70;20236;-73
2024/04/16 06:57:52;;;;;;;0.50;0.25;;;;;;;11.58;61.91;91743.84;2028309;70;20240;-73
2024/04/16 07:00:18;;;;;;;1.55;0.20;;;;;;;11.85;61.45;91745.69;2027897;70;20144;-69
2024/04/16 07:02:43;;;;;;;0.70;0.20;;;;;;;11.84;61.35;91732.97;2028234;70;20665;-69
2024/04/16 07:05:10;;;;;;;0.90;0.30;;;;;;;12.00;60.27;91736.44;2028198;70;20194;-68
2024/04/16 07:07:36;;;;;;;0.30;0.30;;;;;;;12.24;58.68;91735.97;2028478;70;20161;-69
2024/04/16 07:10:02;;;;;;;1.13;0.40;;;;;;;12.26;57.46;91727.56;2028212;70;20641;-70
2024/04/16 07:12:28;;;;;;;0.70;0.60;;;;;;;11.47;58.19;91725.81;2028223;70;20145;-70
2024/04/16 07:14:53;;;;;;;0.60;0.50;;;;;;;11.12;59.00;91735.59;2028136;70;20146;-71
2024/04/16 07:17:19;;;;;;;0.68;0.60;;;;;;;11.48;58.69;91737.78;2027884;70;20187;-71
2024/04/16 07:19:45;;;;;;;2.05;0.43;;;;;;;10.98;58.09;91739.88;2028236;70;20685;-70
2024/04/16 07:22:11;;;;;;;1.15;0.60;;;;;;;10.11;60.71;91742.97;2024652;70;20525;-70
2024/04/16 07:24:36;;;;;;;1.88;0.68;;;;;;;10.79;61.37;91749.63;2028142;70;20575;-69
2024/04/16 07:27:02;;;;;;;0.98;0.52;;;;;;;11.78;59.30;91755.97;2028210;70;20169;-71
2024/04/16 07:29:28;;;;;;;1.88;0.80;;;;;;;11.28;57.75;91763.75;2028182;70;20304;-74
2024/04/16 07:31:53;;;;;;;3.30;0.80;;;;;;;10.65;60.42;91764.50;2027931;70;20272;-71
2024/04/16 07:34:19;;;;;;;2.33;1.00;;;;;;;10.64;59.66;91757.44;2028200;70;20152;-68
2024/04/16 07:36:44;;;;;;;2.25;1.00;;;;;;;10.26;61.88;91747.94;2028010;70;20633;-68
2024/04/16 07:39:10;;;;;;;4.05;1.13;;;;;;;10.80;61.06;91763.06;2027981;70;20144;-69
2024/04/16 07:41:36;;;;;;;3.05;0.85;;;;;;;10.15;61.60;91766.41;2028232;70;20640;-69
2024/04/16 07:44:01;;;;;;;2.15;1.48;;;;;;;10.27;61.16;91774.00;2028195;70;20164;-70
2024/04/16 07:46:27;;;;;;;3.33;1.10;;;;;;;11.06;60.50;91762.78;2027929;70;20674;-69
2024/04/16 07:48:52;;;;;;;2.88;0.95;;;;;;;11.44;59.54;91760.88;2028377;70;20148;-70
2024/04/16 07:51:18;;;;;;;2.00;0.90;;;;;;;11.90;58.70;91750.84;2028668;70;20509;-69
2024/04/16 07:53:44;;;;;;;1.33;0.77;;;;;;;12.18;56.86;91750.53;2028581;70;20201;-69
2024/04/16 07:56:10;;;;;;;0.90;0.70;;;;;;;12.03;56.05;91757.00;2028684;70;20609;-69
2024/04/16 07:58:35;;;;;;;0.60;0.60;;;;;;;12.55;56.10;91749.13;2028594;70;20149;-70
2024/04/16 08:01:01;;;;;;;1.75;0.90;;;;;;;12.72;56.44;91759.69;2028566;70;20160;-70
2024/04/16 08:03:28;;;;;;;3.63;0.90;;;;;;;12.66;56.33;91751.72;2028314;70;20243;-70
2024/04/16 08:05:53;;;;;;;1.42;0.60;;;;;;;12.20;53.14;91762.63;2025179;70;20145;-70
2024/04/16 08:08:19;;;;;;;0.40;0.40;;;;;;;11.26;54.69;91774.19;2025038;70;20525;-69
2024/04/16 08:10:44;;;;;;;0.50;0.40;;;;;;;12.80;54.10;91776.94;2028534;70;20160;-70
2024/04/16 08:13:10;;;;;;;0.50;0.50;;;;;;;12.70;51.78;91763.16;2028548;70;20509;-69
2024/04/16 08:15:36;;;;;;;0.98;0.38;;;;;;;12.93;51.77;91773.19;2028663;70;20141;-73
2024/04/16 08:18:01;;;;;;;1.52;0.20;;;;;;;12.36;50.35;91776.66;2028490;70;20180;-69
2024/04/16 08:20:27;;;;;;;1.77;0.38;;;;;;;13.25;50.90;91777.91;2025217;70;20536;-69
2024/04/16 08:22:53;;;;;;;1.20;0.90;;;;;;;13.18;53.67;91782.56;2028818;70;20137;-69
2024/04/16 08:25:19;;;;;;;1.08;0.70;;;;;;;13.75;52.28;91789.56;2028689;70;20184;-70
2024/04/16 08:27:45;;;;;;;1.80;0.47;;;;;;;13.97;50.67;91798.78;2028576;70;20175;-74
2024/04/16 08:30:11;;;;;;;0.60;0.40;;;;;;;13.44;49.55;91811.81;2024945;70;20229;-72
2024/04/16 08:32:36;;;;;;;0.55;0.30;;;;;;;13.67;49.27;91799.19;2028398;70;20226;-71
2024/04/16 08:35:02;;;;;;;9.38;4.90;;;;;;;12.88;49.26;91794.19;2028602;70;20244;-70
2024/04/16 08:37:30;;;;;;;8.82;3.05;;;;;;;12.79;49.51;91803.00;2025129;70;20160;-71
2024/04/16 08:39:56;;;;;;;0.73;0.50;;;;;;;12.35;49.36;91792.13;2025043;70;20513;-70
2024/04/16 08:42:22;;;;;;;2.17;0.50;;;;;;;12.53;47.77;91780.84;2028640;70;20160;-71
2024/04/16 08:44:48;;;;;;;0.82;0.45;;;;;;;13.86;43.12;91805.47;2024990;70;20157;-72
2024/04/16 08:47:17;;;;;;;1.10;0.28;;;;;;;13.43;39.99;91815.31;2028638;70;20260;-73
2024/04/16 08:49:44;;;;;;;0.90;0.35;;;;;;;14.51;37.08;91806.94;2028354;70;20271;-72
2024/04/16 08:52:12;;;;;;;0.85;0.30;;;;;;;13.55;34.76;91812.16;2028467;70;20149;-70
2024/04/16 08:54:40;;;;;;;2.90;0.40;;;;;;;13.73;35.35;91830.50;2028561;70;20141;-71
2024/04/16 08:57:06;;;;;;;4.60;0.40;;;;;;;12.61;32.92;91828.44;2028465;70;20467;-72
2024/04/16 08:59:32;;;;;;;1.38;0.30;;;;;;;13.68;33.43;91823.25;2024704;70;20184;-71
2024/04/16 09:02:01;;;;;;;2.70;0.35;;;;;;;13.97;30.65;91830.66;2028175;70;20541;-72
2024/04/16 09:04:28;;;;;;;0.60;0.25;;;;;;;14.48;30.58;91832.38;2028499;70;20194;-71
2024/04/16 09:06:55;;;;;;;1.95;0.40;;;;;;;15.04;30.98;91834.81;2028433;70;20254;-71
2024/04/16 09:09:21;;;;;;;1.80;0.30;;;;;;;14.82;29.71;91836.94;2024749;70;20654;-72
2024/04/16 09:11:46;;;;;;;0.22;0.20;;;;;;;15.66;28.70;91845.84;2028614;70;20240;-69
2024/04/16 09:14:14;;;;;;;1.67;0.30;;;;;;;15.63;26.83;91847.16;2028273;70;20241;-71
2024/04/16 09:16:41;;;;;;;0.85;0.45;;;;;;;14.90;27.33;91835.09;2024949;70;20563;-71
2024/04/16 09:19:07;;;;;;;0.90;0.30;;;;;;;15.31;27.37;91836.31;2028463;70;20133;-72
2024/04/16 09:21:33;;;;;;;0.50;0.20;;;;;;;16.53;28.74;91828.28;2028532;70;20168;-72
2024/04/16 09:24:01;;;;;;;1.02;0.40;;;;;;;15.89;28.11;91836.56;2028392;70;20145;-74
2024/04/16 09:26:26;;;;;;;1.77;0.43;;;;;;;16.59;28.96;91829.88;2028671;70;20160;-72
2024/04/16 09:28:52;;;;;;;1.45;0.45;;;;;;;16.62;27.05;91826.38;2028370;70;20169;-71
2024/04/16 09:31:18;;;;;;;2.40;0.57;;;;;;;17.81;26.41;91838.31;2024799;70;20153;-73
2024/04/16 09:33:45;;;;;;;1.75;0.40;;;;;;;18.54;26.84;91833.28;2028605;70;20181;-72
2024/04/16 09:36:15;;;;;;;0.70;0.40;;;;;;;16.55;26.14;91816.28;2028630;70;20663;-73
2024/04/16 09:38:44;;;;;;;0.80;0.40;;;;;;;17.14;25.92;91817.69;2027512;70;20174;-71
2024/04/16 09:41:12;;;;;;;1.40;0.45;;;;;;;16.87;25.30;91816.34;2028264;70;20639;-73
2024/04/16 09:43:40;;;;;;;1.98;0.10;;;;;;;19.12;27.03;91815.03;2028340;70;20186;-72
2024/04/16 09:46:08;;;;;;;1.45;0.57;;;;;;;19.59;24.87;91824.97;2028107;70;20140;-72
2024/04/16 09:48:37;;;;;;;1.75;0.20;;;;;;;18.72;26.44;91830.06;2028208;70;20141;-70
2024/04/16 09:51:05;;;;;;;0.95;0.40;;;;;;;17.38;27.76;91828.88;2028331;70;20152;-74
2024/04/16 09:53:34;;;;;;;1.38;0.20;;;;;;;16.59;25.67;91801.44;2024930;70;20558;-71
2024/04/16 09:56:05;;;;;;;0.20;0.20;;;;;;;17.91;26.08;91818.59;2027634;70;20240;-73
2024/04/16 09:58:39;;;;;;;0.70;0.30;;;;;;;18.93;26.23;91805.47;2028327;70;20141;-71
2024/04/16 10:01:05;;;;;;;1.08;0.40;;;;;;;19.04;25.40;91813.47;2028165;70;20140;-72
2024/04/16 10:03:31;;;;;;;0.50;0.22;;;;;;;18.68;24.16;91818.56;2024618;70;20161;-72
2024/04/16 10:05:57;;;;;;;0.20;0.20;;;;;;;20.01;25.49;91810.53;2028093;70;20152;-73
2024/04/16 10:08:24;;;;;;;1.05;0.30;;;;;;;21.17;24.93;91836.72;2024764;70;20548;-73
2024/04/16 10:10:55;;;;;;;2.08;0.30;;;;;;;19.92;23.96;91842.53;2028111;70;20249;-71
2024/04/16 10:13:21;;;;;;;0.55;0.40;;;;;;;20.53;22.59;91843.28;2028135;70;20158;-76
2024/04/16 10:15:47;;;;;;;1.50;0.50;;;;;;;22.12;25.00;91846.63;2027210;70;20172;-76
2024/04/16 10:18:14;;;;;;;2.33;0.25;;;;;;;20.77;22.28;91874.25;2028076;70;20216;-75
2024/04/16 10:20:56;;;;;;;0.57;0.20;;;;;;;19.84;21.58;91857.47;2028175;70;20200;-71
2024/04/16 10:23:22;;;;;;;0.20;0.20;;;;;;;21.73;22.10;91847.13;2028319;70;20179;-70
2024/04/16 10:25:49;;;;;;;0.70;0.20;;;;;;;23.67;21.13;91836.16;2027992;70;20576;-70
2024/04/16 10:28:26;;;;;;;0.10;0.10;;;;;;;21.65;19.70;91844.22;2027925;70;20187;-71
2024/04/16 10:31:03;;;;;;;2.30;0.20;;;;;;;24.85;20.41;91827.09;2028006;70;20212;-69
2024/04/16 10:33:35;;;;;;;0.45;0.30;;;;;;;24.92;19.11;91833.53;2024445;70;20172;-70
2024/04/16 10:36:03;;;;;;;0.20;0.17;;;;;;;26.52;19.60;91844.38;2028022;70;20531;-75
2024/04/16 10:38:35;;;;;;;3.15;0.30;;;;;;;23.60;18.86;91851.94;2023943;70;20245;-73
2024/04/16 10:41:01;;;;;;;0.20;0.20;;;;;;;23.77;19.37;91836.13;2028243;70;20588;-73
2024/04/16 10:43:27;;;;;;;0.10;0.10;;;;;;;21.83;20.05;91818.53;2028167;70;20125;-74
2024/04/16 10:45:54;;;;;;;0.20;0.20;;;;;;;22.05;20.62;91809.34;2028127;70;20172;-75
2024/04/16 10:48:22;;;;;;;0.30;0.10;;;;;;;27.61;19.13;91821.19;2028029;70;20601;-75
2024/04/16 10:50:48;;;;;;;0.35;0.20;;;;;;;26.39;18.60;91822.88;2028192;70;20153;-74
2024/04/16 10:53:17;;;;;;;0.17;0.10;;;;;;;26.97;19.41;91835.13;2028187;70;20144;-75
2024/04/16 10:55:44;;;;;;;0.40;0.17;;;;;;;22.27;19.30;91814.47;2028250;70;20148;-73
2024/04/16 10:58:14;;;;;;;0.30;0.10;;;;;;;25.24;19.61;91829.00;2028281;70;20160;-74
2024/04/16 11:00:41;;;;;;;0.15;0.10;;;;;;;24.49;18.48;91833.75;2028056;70;20268;-75
2024/04/16 11:03:10;;;;;;;0.65;0.40;;;;;;;21.30;20.92;91852.56;2028087;70;20160;-72
2024/04/16 11:05:38;;;;;;;0.80;0.25;;;;;;;20.15;20.82;91824.25;2027502;70;20199;-70
2024/04/16 11:08:04;;;;;;;1.80;0.20;;;;;;;23.39;20.52;91847.66;2027902;70;20141;-73
2024/04/16 11:10:32;;;;;;;0.63;0.20;;;;;;;25.08;20.43;91841.38;2027900;70;20164;-71
2024/04/16 11:12:58;;;;;;;0.35;0.20;;;;;;;21.83;21.38;91841.47;2028311;70;20157;-72
2024/04/16 11:15:24;;;;;;;0.32;0.20;;;;;;;17.94;23.01;91859.22;2028177;70;20213;-73
2024/04/16 11:17:50;;;;;;;0.35;0.10;;;;;;;19.91;22.16;91850.41;2028069;70;20567;-72
2024/04/16 11:20:16;;;;;;;0.40;0.20;;;;;;;18.81;22.96;91868.00;2028170;70;20221;-71
2024/04/16 11:22:42;;;;;;;1.52;0.20;;;;;;;23.76;19.65;91851.94;2028841;70;20156;-71
2024/04/16 11:25:15;;;;;;;0.82;0.20;;;;;;;27.43;18.84;91859.03;2028443;70;20266;-73
2024/04/16 11:27:44;;;;;;;3.78;0.22;;;;;;;19.33;21.02;91859.53;2028854;70;20160;-73
2024/04/16 11:30:11;;;;;;;0.50;0.10;;;;;;;22.93;20.06;91841.16;2028612;70;20179;-72
2024/04/16 11:32:37;;;;;;;0.30;0.10;;;;;;;22.43;20.42;91848.19;2028474;70;20164;-71